Maersk Dayton — DDSC2 — position and weather

sailwx.info

Track history (hours):
 
Tides and Currents Weather Stations Pressure Air Temp Water Temp Dewpoint Dewpoint Depression Visibility Wind Speed Wind Dir Waves Ship Positions

Maersk Dayton

Last reported at 2017-Sep-24 06:00 UTC. Time now 2017-Sep-25 00:59 UTC.
Position S 34°24' E 131°18'.

Length 281 m; beam 32.2 m; draft 12.5 m.

Type: Ship. MMSI: 218024000.

Wind from 270 at 30 knots

Barometer 1008.0 mb
Air temperature 15.0 ° C
Visibility: greater than 10.8 NM
Dewpoint 13.3 ° C
Water temperature 14.0 ° C

Date/timePositionNaut miles runAvg speedWind from/ knotsBaromVisibWave heightAir tempDewpointWater temp
2017-Sep-24 06:00S 34°24' E 131°18'   270 / 301008.010.8 15.013.314.0
2017-Sep-22 01:35S 34°50' E 138°18'0 0.1
2017-Sep-22 01:29S 34°50' E 138°18'0 0.0
2017-Sep-21 13:05S 34°50' E 138°18'0 0.0
2017-Sep-21 12:59S 34°50' E 138°18'0 0.1
2017-Sep-21 12:08S 34°50' E 138°18'0 0.0
2017-Sep-21 11:59S 34°50' E 138°18'0 0.0
2017-Sep-21 09:57S 34°50' E 138°18'0 0.1
2017-Sep-21 09:30S 34°50' E 138°18'0 0.2
2017-Sep-21 08:09S 34°49' E 138°18'0 0.1
2017-Sep-21 08:00S 34°49' E 138°18'0 0.1
2017-Sep-21 07:30S 34°49' E 138°18'46 5.6
2017-Sep-20 23:17S 35°34' E 138°03'5410.2
2017-Sep-20 18:00S 36°18' E 138°42'102 8.5 360 / 111007.0 5.4 17.010.014.0
2017-Sep-20 06:00S 37°42' E 139°54'238 7.0 340 / 111014.010.8 15.0 2.814.0
2017-Sep-18 19:55S 37°51' E 144°55'0 0.0
2017-Sep-18 19:16S 37°51' E 144°55'0 0.0
2017-Sep-18 18:58S 37°51' E 144°55'0 0.0
2017-Sep-18 18:28S 37°51' E 144°55'0 0.0
2017-Sep-18 17:58S 37°51' E 144°55'0 0.0
2017-Sep-18 17:28S 37°51' E 144°55'0 0.0
2017-Sep-18 16:58S 37°51' E 144°55'0 0.0
2017-Sep-18 16:19S 37°51' E 144°55'0 0.0
2017-Sep-18 15:58S 37°51' E 144°55'0 0.0
2017-Sep-18 15:22S 37°51' E 144°55'0 0.0
2017-Sep-18 14:52S 37°51' E 144°55'0 0.0
2017-Sep-18 14:25S 37°51' E 144°55'0 0.0
2017-Sep-18 13:58S 37°51' E 144°55'0 0.0
2017-Sep-18 13:30S 37°51' E 144°55'0 0.0
2017-Sep-18 12:55S 37°51' E 144°55'0 0.0
2017-Sep-18 12:29S 37°51' E 144°55'0 0.0
2017-Sep-18 11:59S 37°51' E 144°55'0 0.0
2017-Sep-18 11:28S 37°51' E 144°55'0 0.0
2017-Sep-17 20:56S 37°51' E 144°55'0 0.0
2017-Sep-17 18:02S 37°51' E 144°55'0 0.0
2017-Sep-17 17:47S 37°51' E 144°55'0 0.0
2017-Sep-17 17:23S 37°51' E 144°55'0 0.0
2017-Sep-17 16:50S 37°51' E 144°55'0 0.0
2017-Sep-17 16:23S 37°51' E 144°55'0 0.0
2017-Sep-17 15:59S 37°51' E 144°55'0 0.0
2017-Sep-17 15:29S 37°51' E 144°55'0 0.0
2017-Sep-17 14:47S 37°51' E 144°55'0 0.0
2017-Sep-17 14:29S 37°51' E 144°55'0 0.0
2017-Sep-17 13:59S 37°51' E 144°55'0 0.0
2017-Sep-17 13:29S 37°51' E 144°55'0 0.0
2017-Sep-17 11:59S 37°51' E 144°55'0 0.0
2017-Sep-17 11:23S 37°51' E 144°55'0 0.0
2017-Sep-17 10:59S 37°51' E 144°55'0 0.0
2017-Sep-17 10:23S 37°51' E 144°55'0 0.0
2017-Sep-17 08:47S 37°51' E 144°55'0 0.0
2017-Sep-17 08:17S 37°51' E 144°55'0 0.0
2017-Sep-17 07:59S 37°51' E 144°55'0 0.0
2017-Sep-17 07:23S 37°51' E 144°55'0 0.0
2017-Sep-17 06:14S 37°51' E 144°55'0 0.0
2017-Sep-17 05:44S 37°51' E 144°55'0 0.0
2017-Sep-17 04:35S 37°51' E 144°55'0 0.0
2017-Sep-17 04:26S 37°51' E 144°55'0 0.0
2017-Sep-17 03:57S 37°51' E 144°55'0 0.3
2017-Sep-17 03:29S 37°51' E 144°55'1 2.9
2017-Sep-17 03:00S 37°52' E 144°55'611.9
2017-Sep-17 02:31S 37°58' E 144°55'1217.8
2017-Sep-17 01:50S 38°10' E 144°55'17012.0
2017-Sep-16 11:39S 38°33' E 148°30'317.5
2017-Sep-16 11:30S 38°32' E 148°32'917.2
2017-Sep-16 10:58S 38°26' E 148°42'917.3
2017-Sep-16 10:27S 38°21' E 148°51'1417.2
2017-Sep-16 09:39S 38°13' E 149°05'274 5.4
2017-Sep-14 07:19S 34°01' E 151°18'3 8.4
2017-Sep-14 07:01S 34°01' E 151°21'2 3.8
2017-Sep-14 06:30S 33°60' E 151°23'1 2.9
2017-Sep-14 06:00S 33°59' E 151°24'  
Track history (hours):
 
Tides and Currents Weather Stations Pressure Air Temp Water Temp Dewpoint Dewpoint Depression Visibility Wind Speed Wind Dir Waves Ship Positions

Maersk Dayton

Last reported at 2017-Sep-24 06:00 UTC. Time now 2017-Sep-25 00:59 UTC.
Position S 34°24' E 131°18'.

Length 281 m; beam 32.2 m; draft 12.5 m.

Type: Ship. MMSI: 218024000.

Wind from 270 at 30 knots

Barometer 1008.0 mb
Air temperature 15.0 ° C
Visibility: greater than 10.8 NM
Dewpoint 13.3 ° C
Water temperature 14.0 ° C

Date/timePositionNaut miles runAvg speedWind from/ knotsBaromVisibWave heightAir tempDewpointWater temp
2017-Sep-24 06:00S 34°24' E 131°18'   270 / 301008.010.8 15.013.314.0
2017-Sep-22 01:35S 34°50' E 138°18'0 0.1
2017-Sep-22 01:29S 34°50' E 138°18'0 0.0
2017-Sep-21 13:05S 34°50' E 138°18'0 0.0
2017-Sep-21 12:59S 34°50' E 138°18'0 0.1
2017-Sep-21 12:08S 34°50' E 138°18'0 0.0
2017-Sep-21 11:59S 34°50' E 138°18'0 0.0
2017-Sep-21 09:57S 34°50' E 138°18'0 0.1
2017-Sep-21 09:30S 34°50' E 138°18'0 0.2
2017-Sep-21 08:09S 34°49' E 138°18'0 0.1
2017-Sep-21 08:00S 34°49' E 138°18'0 0.1
2017-Sep-21 07:30S 34°49' E 138°18'46 5.6
2017-Sep-20 23:17S 35°34' E 138°03'5410.2
2017-Sep-20 18:00S 36°18' E 138°42'102 8.5 360 / 111007.0 5.4 17.010.014.0
2017-Sep-20 06:00S 37°42' E 139°54'238 7.0 340 / 111014.010.8 15.0 2.814.0
2017-Sep-18 19:55S 37°51' E 144°55'0 0.0
2017-Sep-18 19:16S 37°51' E 144°55'0 0.0
2017-Sep-18 18:58S 37°51' E 144°55'0 0.0
2017-Sep-18 18:28S 37°51' E 144°55'0 0.0
2017-Sep-18 17:58S 37°51' E 144°55'0 0.0
2017-Sep-18 17:28S 37°51' E 144°55'0 0.0
2017-Sep-18 16:58S 37°51' E 144°55'0 0.0
2017-Sep-18 16:19S 37°51' E 144°55'0 0.0
2017-Sep-18 15:58S 37°51' E 144°55'0 0.0
2017-Sep-18 15:22S 37°51' E 144°55'0 0.0
2017-Sep-18 14:52S 37°51' E 144°55'0 0.0
2017-Sep-18 14:25S 37°51' E 144°55'0 0.0
2017-Sep-18 13:58S 37°51' E 144°55'0 0.0
2017-Sep-18 13:30S 37°51' E 144°55'0 0.0
2017-Sep-18 12:55S 37°51' E 144°55'0 0.0
2017-Sep-18 12:29S 37°51' E 144°55'0 0.0
2017-Sep-18 11:59S 37°51' E 144°55'0 0.0
2017-Sep-18 11:28S 37°51' E 144°55'0 0.0
2017-Sep-17 20:56S 37°51' E 144°55'0 0.0
2017-Sep-17 18:02S 37°51' E 144°55'0 0.0
2017-Sep-17 17:47S 37°51' E 144°55'0 0.0
2017-Sep-17 17:23S 37°51' E 144°55'0 0.0
2017-Sep-17 16:50S 37°51' E 144°55'0 0.0
2017-Sep-17 16:23S 37°51' E 144°55'0 0.0
2017-Sep-17 15:59S 37°51' E 144°55'0 0.0
2017-Sep-17 15:29S 37°51' E 144°55'0 0.0
2017-Sep-17 14:47S 37°51' E 144°55'0 0.0
2017-Sep-17 14:29S 37°51' E 144°55'0 0.0
2017-Sep-17 13:59S 37°51' E 144°55'0 0.0
2017-Sep-17 13:29S 37°51' E 144°55'0 0.0
2017-Sep-17 11:59S 37°51' E 144°55'0 0.0
2017-Sep-17 11:23S 37°51' E 144°55'0 0.0
2017-Sep-17 10:59S 37°51' E 144°55'0 0.0
2017-Sep-17 10:23S 37°51' E 144°55'0 0.0
2017-Sep-17 08:47S 37°51' E 144°55'0 0.0
2017-Sep-17 08:17S 37°51' E 144°55'0 0.0
2017-Sep-17 07:59S 37°51' E 144°55'0 0.0
2017-Sep-17 07:23S 37°51' E 144°55'0 0.0
2017-Sep-17 06:14S 37°51' E 144°55'0 0.0
2017-Sep-17 05:44S 37°51' E 144°55'0 0.0
2017-Sep-17 04:35S 37°51' E 144°55'0 0.0
2017-Sep-17 04:26S 37°51' E 144°55'0 0.0
2017-Sep-17 03:57S 37°51' E 144°55'0 0.3
2017-Sep-17 03:29S 37°51' E 144°55'1 2.9
2017-Sep-17 03:00S 37°52' E 144°55'611.9
2017-Sep-17 02:31S 37°58' E 144°55'1217.8
2017-Sep-17 01:50S 38°10' E 144°55'17012.0
2017-Sep-16 11:39S 38°33' E 148°30'317.5
2017-Sep-16 11:30S 38°32' E 148°32'917.2
2017-Sep-16 10:58S 38°26' E 148°42'917.3
2017-Sep-16 10:27S 38°21' E 148°51'1417.2
2017-Sep-16 09:39S 38°13' E 149°05'274 5.4
2017-Sep-14 07:19S 34°01' E 151°18'3 8.4
2017-Sep-14 07:01S 34°01' E 151°21'2 3.8
2017-Sep-14 06:30S 33°60' E 151°23'1 2.9
2017-Sep-14 06:00S 33°59' E 151°24'  

Dump ship's entire track history